createdAt,value
2023-04-20T00:01:10.828Z,14.64
2023-04-20T00:03:39.088Z,14.58
2023-04-20T00:06:05.935Z,14.48
2023-04-20T00:08:32.636Z,14.40
2023-04-20T00:10:59.297Z,14.50
2023-04-20T00:13:26.027Z,14.51
2023-04-20T00:15:52.693Z,14.28
2023-04-20T00:18:19.395Z,14.55
2023-04-20T00:20:47.400Z,14.51
2023-04-20T00:23:14.078Z,14.56
2023-04-20T00:25:40.772Z,14.20
2023-04-20T00:28:07.521Z,14.53
2023-04-20T00:30:34.295Z,14.10
2023-04-20T00:33:01.038Z,14.42
2023-04-20T00:35:27.724Z,14.40
2023-04-20T00:37:55.759Z,14.30
2023-04-20T00:40:22.385Z,14.29
2023-04-20T00:42:48.990Z,14.49
2023-04-20T00:45:15.704Z,14.24
2023-04-20T00:47:42.369Z,14.21
2023-04-20T00:50:10.591Z,14.08
2023-04-20T00:52:37.278Z,14.12
2023-04-20T00:55:06.368Z,14.09
2023-04-20T00:57:36.277Z,14.14
2023-04-20T01:00:03.781Z,14.31
2023-04-20T01:02:30.673Z,14.03
2023-04-20T01:04:57.566Z,14.17
2023-04-20T01:07:24.287Z,13.92
2023-04-20T01:09:50.914Z,14.15
2023-04-20T01:12:18.983Z,14.23
2023-04-20T01:14:45.688Z,14.30
2023-04-20T01:17:12.335Z,14.35
2023-04-20T01:19:39.073Z,13.94
2023-04-20T01:22:05.803Z,14.22
2023-04-20T01:24:33.955Z,14.34
2023-04-20T01:27:00.637Z,14.30
2023-04-20T01:29:27.548Z,14.28
2023-04-20T01:31:54.259Z,14.29
2023-04-20T01:34:20.950Z,14.14
2023-04-20T01:36:47.559Z,14.02
2023-04-20T01:39:14.277Z,13.91
2023-04-20T01:41:42.557Z,13.88
2023-04-20T01:44:09.230Z,14.00
2023-04-20T01:46:37.516Z,13.99
2023-04-20T01:49:04.239Z,13.79
2023-04-20T01:51:30.841Z,13.71
2023-04-20T01:53:57.425Z,13.76
2023-04-20T01:56:24.169Z,13.77
2023-04-20T01:58:52.157Z,13.74
2023-04-20T02:01:19.874Z,13.77
2023-04-20T02:03:46.851Z,13.73
2023-04-20T02:06:13.594Z,13.87
2023-04-20T02:08:40.292Z,13.82
2023-04-20T02:11:06.949Z,13.92
2023-04-20T02:13:33.654Z,13.83
2023-04-20T02:16:01.669Z,13.73
2023-04-20T02:18:28.334Z,13.69
2023-04-20T02:20:54.946Z,13.75
2023-04-20T02:23:21.594Z,13.66
2023-04-20T02:25:48.272Z,13.63
2023-04-20T02:28:14.880Z,13.51
2023-04-20T02:30:41.633Z,13.27
2023-04-20T02:33:09.897Z,13.36
2023-04-20T02:35:36.556Z,13.48
2023-04-20T02:38:03.257Z,13.45
2023-04-20T02:40:30.060Z,13.45
2023-04-20T02:42:56.691Z,13.52
2023-04-20T02:45:23.338Z,13.48
2023-04-20T02:47:50.023Z,13.50
2023-04-20T02:50:18.045Z,13.38
2023-04-20T02:52:44.693Z,13.38
2023-04-20T02:55:11.350Z,13.29
2023-04-20T02:57:37.969Z,13.38
2023-04-20T03:00:05.613Z,13.36
2023-04-20T03:02:32.393Z,13.58
2023-04-20T03:04:59.267Z,13.53
2023-04-20T03:07:27.325Z,13.17
2023-04-20T03:09:53.993Z,13.36
2023-04-20T03:12:20.658Z,13.52
2023-04-20T03:14:47.233Z,13.53
2023-04-20T03:17:14.058Z,13.56
2023-04-20T03:19:40.712Z,13.46
2023-04-20T03:22:08.397Z,13.44
2023-04-20T03:24:36.411Z,13.39
2023-04-20T03:27:03.072Z,13.46
2023-04-20T03:29:29.710Z,13.40
2023-04-20T03:31:56.364Z,13.45
2023-04-20T03:34:22.964Z,13.27
2023-04-20T03:36:49.560Z,13.32
2023-04-20T03:39:16.362Z,13.18
2023-04-20T03:41:44.535Z,13.16
2023-04-20T03:44:11.176Z,13.01
2023-04-20T03:46:37.793Z,12.79
2023-04-20T03:49:04.441Z,12.75
2023-04-20T03:51:31.090Z,12.74
2023-04-20T03:53:57.725Z,12.69
2023-04-20T03:56:24.472Z,12.72
2023-04-20T03:58:52.582Z,12.70
2023-04-20T04:01:19.206Z,12.66
2023-04-20T04:03:46.157Z,12.69
2023-04-20T04:06:12.940Z,12.66
2023-04-20T04:08:39.518Z,12.57
2023-04-20T04:11:06.205Z,12.53
2023-04-20T04:13:34.624Z,12.63
2023-04-20T04:16:03.083Z,12.66
2023-04-20T04:18:31.035Z,12.60
2023-04-20T04:20:57.799Z,12.76
2023-04-20T04:23:24.583Z,12.66
2023-04-20T04:25:51.263Z,12.48
2023-04-20T04:28:17.928Z,12.61
2023-04-20T04:30:44.570Z,12.54
2023-04-20T04:33:12.579Z,12.34
2023-04-20T04:35:39.260Z,12.34
2023-04-20T04:38:06.026Z,12.29
2023-04-20T04:40:32.700Z,12.44
2023-04-20T04:42:59.370Z,12.17
2023-04-20T04:45:26.171Z,12.21
2023-04-20T04:47:53.194Z,12.16
2023-04-20T04:50:22.342Z,12.02
2023-04-20T04:52:49.053Z,12.06
2023-04-20T04:55:16.556Z,12.17
2023-04-20T04:57:43.424Z,12.15
2023-04-20T05:00:11.074Z,12.23
2023-04-20T05:02:37.962Z,12.63
2023-04-20T05:05:06.983Z,12.89
2023-04-20T05:07:36.178Z,12.97
2023-04-20T05:10:02.921Z,13.11
2023-04-20T05:12:29.624Z,12.98
2023-04-20T05:14:56.239Z,13.09
2023-04-20T05:17:22.877Z,13.24
2023-04-20T05:19:49.551Z,13.20
2023-04-20T05:22:16.198Z,13.12
2023-04-20T05:24:44.222Z,13.46
2023-04-20T05:27:11.126Z,13.70
2023-04-20T05:29:37.811Z,13.71
2023-04-20T05:32:04.886Z,13.81
2023-04-20T05:34:31.688Z,14.11
2023-04-20T05:36:58.952Z,13.96
2023-04-20T05:39:25.635Z,14.19
2023-04-20T05:41:53.673Z,14.61
2023-04-20T05:44:20.319Z,14.86
2023-04-20T05:46:46.910Z,14.55
2023-04-20T05:49:13.558Z,14.81
2023-04-20T05:51:40.155Z,14.81
2023-04-20T05:54:06.865Z,14.94
2023-04-20T05:56:33.514Z,15.06
2023-04-20T05:59:01.939Z,15.11
2023-04-20T06:01:28.552Z,15.10
2023-04-20T06:03:55.533Z,15.24
2023-04-20T06:06:22.281Z,15.26
2023-04-20T06:08:49.056Z,15.37
2023-04-20T06:11:15.670Z,15.50
2023-04-20T06:13:42.320Z,15.87
2023-04-20T06:16:10.389Z,16.18
2023-04-20T06:18:37.229Z,16.13
2023-04-20T06:21:04.263Z,16.08
2023-04-20T06:23:30.909Z,16.40
2023-04-20T06:25:57.550Z,16.58
2023-04-20T06:28:24.204Z,16.38
2023-04-20T06:30:50.829Z,16.33
2023-04-20T06:33:19.104Z,16.59
2023-04-20T06:35:45.783Z,16.68
2023-04-20T06:38:12.458Z,16.91
2023-04-20T06:40:39.233Z,17.11
2023-04-20T06:43:05.895Z,17.45
2023-04-20T06:45:33.999Z,17.75
2023-04-20T06:48:00.926Z,17.76
2023-04-20T06:50:29.076Z,18.04
2023-04-20T06:52:55.749Z,18.25
2023-04-20T06:55:22.408Z,18.63
2023-04-20T06:57:49.082Z,19.20
2023-04-20T07:00:17.010Z,19.76
2023-04-20T07:02:45.522Z,19.49
2023-04-20T07:05:12.287Z,19.44
2023-04-20T07:07:40.529Z,19.47
2023-04-20T07:10:07.992Z,19.86
2023-04-20T07:12:34.982Z,19.92
2023-04-20T07:15:02.340Z,20.11
2023-04-20T07:17:29.029Z,20.31
2023-04-20T07:19:55.753Z,20.91
2023-04-20T07:22:22.428Z,20.78
2023-04-20T07:24:50.741Z,21.01
2023-04-20T07:27:17.477Z,20.92
2023-04-20T07:29:44.106Z,20.73
2023-04-20T07:32:10.848Z,20.84
2023-04-20T07:34:37.572Z,20.42
2023-04-20T07:37:05.333Z,20.69
2023-04-20T07:39:32.000Z,20.39
2023-04-20T07:42:02.606Z,20.66
2023-04-20T07:44:29.218Z,21.04
2023-04-20T07:46:55.894Z,20.97
2023-04-20T07:49:22.561Z,20.78
2023-04-20T07:51:49.286Z,20.92
2023-04-20T07:54:16.002Z,20.90
2023-04-20T07:56:42.746Z,20.85
2023-04-20T07:59:10.738Z,21.15
2023-04-20T08:01:37.412Z,21.20
2023-04-20T08:04:04.403Z,20.90
2023-04-20T08:06:31.122Z,21.01
2023-04-20T08:08:57.727Z,20.83
2023-04-20T08:11:24.384Z,20.83
2023-04-20T08:13:51.030Z,21.29
2023-04-20T08:16:19.143Z,21.33
2023-04-20T08:18:45.964Z,20.90
2023-04-20T08:21:12.665Z,20.87
2023-04-20T08:23:39.302Z,21.12
2023-04-20T08:26:06.156Z,21.25
2023-04-20T08:28:34.218Z,20.84
2023-04-20T08:31:01.403Z,21.08
2023-04-20T08:33:29.542Z,21.49
2023-04-20T08:35:56.284Z,21.67
2023-04-20T08:38:32.936Z,21.57
2023-04-20T08:41:00.442Z,21.25
2023-04-20T08:43:27.159Z,21.67
2023-04-20T08:45:58.735Z,21.53
2023-04-20T08:48:26.002Z,22.13
2023-04-20T08:50:54.899Z,22.11
2023-04-20T08:53:21.661Z,22.42
2023-04-20T08:55:49.393Z,22.96
2023-04-20T08:58:17.144Z,22.90
2023-04-20T09:00:47.335Z,23.72
2023-04-20T09:03:14.310Z,23.93
2023-04-20T09:05:41.458Z,23.73
2023-04-20T09:08:09.525Z,23.30
2023-04-20T09:10:41.308Z,23.11
2023-04-20T09:13:08.131Z,23.28
2023-04-20T09:15:35.246Z,23.70
2023-04-20T09:18:11.871Z,23.42
2023-04-20T09:20:38.546Z,21.97
2023-04-20T09:23:13.125Z,22.81
2023-04-20T09:25:39.852Z,23.56
2023-04-20T09:28:07.069Z,24.09
2023-04-20T09:30:38.265Z,23.83
2023-04-20T09:33:05.822Z,23.21
2023-04-20T09:35:32.562Z,23.11
2023-04-20T09:37:59.319Z,23.00
2023-04-20T09:40:28.601Z,22.92
2023-04-20T09:42:58.389Z,22.98
2023-04-20T09:45:25.685Z,23.43
2023-04-20T09:47:53.779Z,23.66
2023-04-20T09:50:28.966Z,23.04
2023-04-20T09:53:00.591Z,22.64
2023-04-20T09:55:31.198Z,22.78
2023-04-20T09:57:58.482Z,22.87
2023-04-20T10:00:25.409Z,22.38
2023-04-20T10:02:52.392Z,22.53
2023-04-20T10:05:19.337Z,23.00
2023-04-20T10:07:46.205Z,23.03
2023-04-20T10:10:14.881Z,23.47
2023-04-20T10:12:50.685Z,23.72
2023-04-20T10:15:18.112Z,23.78
2023-04-20T10:17:45.303Z,23.25
2023-04-20T10:20:23.311Z,23.48
2023-04-20T10:22:51.898Z,23.64
2023-04-20T10:25:20.480Z,24.16
2023-04-20T10:27:56.453Z,23.61
2023-04-20T10:30:23.476Z,23.78
2023-04-20T10:32:50.736Z,23.47
2023-04-20T10:35:17.496Z,23.90
2023-04-20T10:37:51.337Z,23.65
2023-04-20T10:40:26.001Z,23.73
2023-04-20T10:42:52.743Z,23.27
2023-04-20T10:45:20.967Z,24.04
2023-04-20T10:47:47.775Z,24.50
2023-04-20T10:50:16.032Z,24.70
2023-04-20T10:52:44.104Z,24.85
2023-04-20T10:55:19.434Z,25.42
2023-04-20T10:57:46.116Z,25.62
2023-04-20T11:00:17.356Z,25.47
2023-04-20T11:02:52.831Z,25.39
2023-04-20T11:05:20.923Z,25.23
2023-04-20T11:07:51.456Z,25.28
2023-04-20T11:10:18.337Z,25.23
2023-04-20T11:12:45.038Z,24.97
2023-04-20T11:15:11.837Z,24.43
2023-04-20T11:17:38.773Z,23.69
2023-04-20T11:20:09.826Z,23.89
2023-04-20T11:22:36.847Z,24.61
2023-04-20T11:25:04.741Z,24.22
2023-04-20T11:27:31.501Z,24.15
2023-04-20T11:29:58.508Z,23.82
2023-04-20T11:32:26.150Z,24.11
2023-04-20T11:35:06.537Z,24.02
2023-04-20T11:37:46.377Z,24.07
2023-04-20T11:40:13.445Z,24.27
2023-04-20T11:42:40.124Z,24.51
2023-04-20T11:45:07.828Z,23.91
2023-04-20T11:47:34.554Z,24.61
2023-04-20T11:50:01.313Z,25.22
2023-04-20T11:52:28.036Z,24.22
2023-04-20T11:54:56.083Z,23.28
2023-04-20T11:57:22.881Z,24.32
2023-04-20T11:59:49.657Z,24.87
2023-04-20T12:02:16.468Z,24.79
2023-04-20T12:04:43.536Z,24.81
2023-04-20T12:07:10.563Z,25.55
2023-04-20T12:09:37.258Z,26.14
2023-04-20T12:12:06.042Z,25.67
2023-04-20T12:14:33.038Z,25.04
2023-04-20T12:16:59.804Z,24.76
2023-04-20T12:19:26.628Z,24.20
2023-04-20T12:21:53.285Z,24.98
2023-04-20T12:24:19.985Z,25.20
2023-04-20T12:26:46.645Z,24.69
2023-04-20T12:29:14.787Z,24.55
2023-04-20T12:31:41.517Z,24.58
2023-04-20T12:34:08.253Z,24.65
2023-04-20T12:36:35.094Z,24.91
2023-04-20T12:39:02.072Z,25.09
2023-04-20T12:41:28.763Z,24.89
2023-04-20T12:43:55.425Z,25.10
2023-04-20T12:46:23.565Z,24.67
2023-04-20T12:48:50.238Z,24.58
2023-04-20T12:51:16.894Z,25.22
2023-04-20T12:53:43.703Z,25.82
2023-04-20T12:56:10.460Z,25.61
2023-04-20T12:58:37.301Z,25.46
2023-04-20T13:01:04.058Z,25.00
2023-04-20T13:03:32.386Z,25.37
2023-04-20T13:05:59.331Z,25.25
2023-04-20T13:08:26.074Z,24.08
2023-04-20T13:10:52.722Z,23.72
2023-04-20T13:13:19.545Z,23.43
2023-04-20T13:15:46.232Z,23.79
2023-04-20T13:18:12.899Z,23.76
2023-04-20T13:20:41.392Z,23.75
2023-04-20T13:23:08.087Z,24.20
2023-04-20T13:25:34.812Z,24.29
2023-04-20T13:28:03.060Z,23.76
2023-04-20T13:30:29.787Z,24.09
2023-04-20T13:32:56.626Z,24.07
2023-04-20T13:35:24.178Z,23.76
2023-04-20T13:37:52.412Z,23.38
2023-04-20T13:40:19.058Z,22.98
2023-04-20T13:42:45.799Z,22.90
2023-04-20T13:45:12.792Z,22.55
2023-04-20T13:47:40.296Z,22.44
2023-04-20T13:50:08.622Z,22.75
2023-04-20T13:52:35.503Z,21.99
2023-04-20T13:55:03.713Z,22.54
2023-04-20T13:57:30.449Z,23.17
2023-04-20T13:59:57.352Z,23.17
2023-04-20T14:02:24.198Z,23.08
2023-04-20T14:04:51.169Z,23.82
2023-04-20T14:07:17.865Z,23.25
2023-04-20T14:09:44.679Z,23.33
2023-04-20T14:12:13.279Z,23.70
2023-04-20T14:14:40.147Z,23.56
2023-04-20T14:17:06.776Z,23.73
2023-04-20T14:19:33.511Z,23.39
2023-04-20T14:22:00.264Z,22.88
2023-04-20T14:24:26.974Z,23.62
2023-04-20T14:26:53.677Z,23.51
2023-04-20T14:29:21.731Z,23.37
2023-04-20T14:31:48.647Z,23.38
2023-04-20T14:34:15.634Z,22.94
2023-04-20T14:36:42.421Z,22.09
2023-04-20T14:39:09.112Z,21.66
2023-04-20T14:41:36.048Z,22.07
2023-04-20T14:44:02.715Z,21.82
2023-04-20T14:46:30.827Z,21.83
2023-04-20T14:48:57.571Z,21.63
2023-04-20T14:51:24.267Z,21.92
2023-04-20T14:53:51.045Z,22.31
2023-04-20T14:56:17.778Z,22.50
2023-04-20T14:58:44.534Z,22.98
2023-04-20T15:01:11.215Z,22.67
2023-04-20T15:03:39.539Z,22.54
2023-04-20T15:06:07.229Z,22.16
2023-04-20T15:08:33.890Z,22.05
2023-04-20T15:11:00.590Z,21.94
2023-04-20T15:13:27.332Z,22.22
2023-04-20T15:15:55.259Z,22.50
2023-04-20T15:18:22.364Z,21.95
2023-04-20T15:20:54.943Z,21.53
2023-04-20T15:23:21.958Z,21.84
2023-04-20T15:25:48.731Z,21.24
2023-04-20T15:28:15.580Z,21.63
2023-04-20T15:30:42.585Z,21.56
2023-04-20T15:33:09.423Z,21.75
2023-04-20T15:35:36.247Z,21.53
2023-04-20T15:38:04.477Z,21.86
2023-04-20T15:40:31.164Z,21.98
2023-04-20T15:42:57.848Z,22.07
2023-04-20T15:45:24.672Z,22.29
2023-04-20T15:47:51.621Z,21.44
2023-04-20T15:50:18.873Z,21.92
2023-04-20T15:52:45.717Z,21.64
2023-04-20T15:55:13.850Z,21.33
2023-04-20T15:57:41.319Z,21.40
2023-04-20T16:00:10.484Z,21.12
2023-04-20T16:02:37.727Z,21.24
2023-04-20T16:05:05.197Z,21.36
2023-04-20T16:07:31.899Z,21.20
2023-04-20T16:09:58.876Z,21.41
2023-04-20T16:12:27.180Z,21.05
2023-04-20T16:14:53.991Z,20.51
2023-04-20T16:17:20.899Z,21.28
2023-04-20T16:19:47.624Z,21.25
2023-04-20T16:22:14.350Z,21.59
2023-04-20T16:24:41.098Z,20.83
2023-04-20T16:27:07.835Z,20.68
2023-04-20T16:29:35.938Z,21.08
2023-04-20T16:32:02.688Z,20.81
2023-04-20T16:34:29.332Z,20.95
2023-04-20T16:36:56.034Z,19.89
2023-04-20T16:39:22.826Z,20.45
2023-04-20T16:41:49.510Z,20.70
2023-04-20T16:44:16.699Z,21.03
2023-04-20T16:46:47.724Z,21.14
2023-04-20T16:49:14.415Z,21.05
2023-04-20T16:51:41.075Z,20.19
2023-04-20T16:54:07.749Z,20.77
2023-04-20T16:56:34.512Z,20.82
2023-04-20T16:59:01.142Z,20.96
2023-04-20T17:01:27.966Z,21.09
2023-04-20T17:03:56.094Z,20.82
2023-04-20T17:06:22.804Z,20.78
2023-04-20T17:08:49.494Z,20.67
2023-04-20T17:11:16.148Z,21.15
2023-04-20T17:13:42.869Z,20.86
2023-04-20T17:16:09.669Z,20.76
2023-04-20T17:18:36.409Z,20.56
2023-04-20T17:21:04.917Z,20.28
2023-04-20T17:23:33.428Z,20.79
2023-04-20T17:26:00.141Z,20.67
2023-04-20T17:28:26.836Z,20.29
2023-04-20T17:30:53.609Z,20.35
2023-04-20T17:33:20.303Z,20.95
2023-04-20T17:35:46.961Z,20.49
2023-04-20T17:38:15.079Z,21.03
2023-04-20T17:40:41.730Z,20.17
2023-04-20T17:43:08.439Z,20.52
2023-04-20T17:45:36.682Z,19.98
2023-04-20T17:48:03.662Z,20.31
2023-04-20T17:50:30.417Z,20.08
2023-04-20T17:52:57.161Z,19.71
2023-04-20T17:55:25.449Z,19.40
2023-04-20T17:57:52.114Z,19.38
2023-04-20T18:00:19.086Z,19.48
2023-04-20T18:02:45.925Z,19.47
2023-04-20T18:05:12.713Z,19.35
2023-04-20T18:07:39.404Z,19.25
2023-04-20T18:10:07.245Z,19.65
2023-04-20T18:12:35.404Z,19.63
2023-04-20T18:15:02.150Z,19.68
2023-04-20T18:17:28.870Z,19.78
2023-04-20T18:19:55.617Z,19.47
2023-04-20T18:22:22.306Z,18.88
2023-04-20T18:24:49.051Z,19.18
2023-04-20T18:27:15.710Z,19.25
2023-04-20T18:29:43.749Z,19.36
2023-04-20T18:32:10.552Z,18.98
2023-04-20T18:34:37.216Z,19.15
2023-04-20T18:37:03.933Z,19.02
2023-04-20T18:39:30.623Z,19.25
2023-04-20T18:41:57.294Z,19.15
2023-04-20T18:44:24.009Z,18.90
2023-04-20T18:46:52.256Z,19.00
2023-04-20T18:49:18.997Z,18.80
2023-04-20T18:51:45.633Z,18.75
2023-04-20T18:54:12.522Z,18.98
2023-04-20T18:56:39.367Z,18.55
2023-04-20T18:59:06.160Z,18.35
2023-04-20T19:01:33.170Z,18.49
2023-04-20T19:04:01.533Z,18.55
2023-04-20T19:06:28.447Z,18.37
2023-04-20T19:08:55.136Z,18.21
2023-04-20T19:11:21.808Z,18.25
2023-04-20T19:13:48.493Z,18.15
2023-04-20T19:16:15.310Z,18.00
2023-04-20T19:18:41.986Z,18.41
2023-04-20T19:21:10.797Z,18.31
2023-04-20T19:23:37.512Z,18.28
2023-04-20T19:26:04.237Z,17.74
2023-04-20T19:28:30.983Z,17.98
2023-04-20T19:30:58.862Z,17.69
2023-04-20T19:33:25.669Z,17.79
2023-04-20T19:35:52.423Z,17.40
2023-04-20T19:38:21.652Z,17.64
2023-04-20T19:40:48.730Z,17.42
2023-04-20T19:43:15.447Z,17.21
2023-04-20T19:45:42.197Z,16.86
2023-04-20T19:48:09.010Z,16.62
2023-04-20T19:50:35.794Z,17.06
2023-04-20T19:53:02.496Z,17.28
2023-04-20T19:55:30.581Z,17.10
2023-04-20T19:57:57.307Z,17.09
2023-04-20T20:00:24.203Z,17.35
2023-04-20T20:02:51.074Z,17.22
2023-04-20T20:05:17.979Z,17.40
2023-04-20T20:07:44.667Z,17.42
2023-04-20T20:10:11.403Z,17.36
2023-04-20T20:12:39.477Z,17.50
2023-04-20T20:15:06.736Z,17.80
2023-04-20T20:17:33.410Z,17.82
2023-04-20T20:20:00.296Z,17.40
2023-04-20T20:22:27.059Z,17.49
2023-04-20T20:24:53.717Z,17.56
2023-04-20T20:27:20.597Z,17.70
2023-04-20T20:29:48.797Z,17.68
2023-04-20T20:32:15.545Z,17.10
2023-04-20T20:34:42.272Z,17.17
2023-04-20T20:37:09.124Z,16.93
2023-04-20T20:39:35.921Z,16.84
2023-04-20T20:42:02.703Z,16.96
2023-04-20T20:44:29.686Z,16.99
2023-04-20T20:46:57.776Z,16.26
2023-04-20T20:49:24.630Z,16.54
2023-04-20T20:51:51.426Z,16.45
2023-04-20T20:54:18.208Z,15.99
2023-04-20T20:56:44.971Z,16.35
2023-04-20T20:59:11.637Z,15.87
2023-04-20T21:01:38.414Z,15.92
2023-04-20T21:04:06.826Z,15.91
2023-04-20T21:06:33.575Z,15.88
2023-04-20T21:09:00.427Z,15.70
2023-04-20T21:11:27.074Z,16.20
2023-04-20T21:13:53.700Z,15.21
2023-04-20T21:16:20.423Z,14.65
2023-04-20T21:18:47.084Z,14.72
2023-04-20T21:21:15.211Z,14.80
2023-04-20T21:23:41.908Z,14.89
2023-04-20T21:26:08.597Z,14.98
2023-04-20T21:28:35.325Z,15.04
2023-04-20T21:31:02.032Z,14.91
2023-04-20T21:33:28.793Z,14.85
2023-04-20T21:35:57.660Z,15.08
2023-04-20T21:38:27.017Z,15.16
2023-04-20T21:40:53.626Z,15.09
2023-04-20T21:43:20.327Z,15.05
2023-04-20T21:45:47.094Z,14.61
2023-04-20T21:48:13.752Z,15.03
2023-04-20T21:50:40.513Z,14.57
2023-04-20T21:53:07.242Z,14.98
2023-04-20T21:55:35.349Z,15.03
2023-04-20T21:58:02.013Z,14.79
2023-04-20T22:00:28.692Z,15.06
2023-04-20T22:02:55.556Z,15.02
2023-04-20T22:05:22.696Z,15.06
2023-04-20T22:07:49.361Z,15.11
2023-04-20T22:10:16.017Z,15.16
2023-04-20T22:12:44.127Z,14.72
2023-04-20T22:15:13.591Z,15.03
2023-04-20T22:17:40.803Z,14.52
2023-04-20T22:20:10.180Z,14.68
2023-04-20T22:22:37.975Z,14.60
2023-04-20T22:25:06.570Z,14.65
2023-04-20T22:27:34.549Z,14.74
2023-04-20T22:30:02.821Z,14.96
2023-04-20T22:32:29.582Z,14.79
2023-04-20T22:34:56.291Z,14.82
2023-04-20T22:37:22.941Z,14.91
2023-04-20T22:39:49.591Z,14.68
2023-04-20T22:42:16.286Z,14.31
2023-04-20T22:44:42.901Z,14.49
2023-04-20T22:47:11.033Z,14.50
2023-04-20T22:49:37.772Z,14.81
2023-04-20T22:52:04.619Z,15.00
2023-04-20T22:54:31.366Z,14.97
2023-04-20T22:56:58.039Z,14.89
2023-04-20T22:59:24.731Z,14.83
2023-04-20T23:01:51.421Z,15.01
2023-04-20T23:04:19.591Z,14.86
2023-04-20T23:06:46.295Z,14.84
2023-04-20T23:09:13.067Z,14.51
2023-04-20T23:11:39.957Z,14.79
2023-04-20T23:14:06.962Z,14.83
2023-04-20T23:16:33.827Z,14.76
2023-04-20T23:19:01.223Z,14.72
2023-04-20T23:21:29.312Z,14.65
2023-04-20T23:23:56.015Z,14.83
2023-04-20T23:26:22.965Z,14.64
2023-04-20T23:28:50.838Z,14.92
2023-04-20T23:31:17.610Z,14.94
2023-04-20T23:33:44.360Z,14.81
2023-04-20T23:36:11.039Z,14.77
2023-04-20T23:38:39.318Z,14.90
2023-04-20T23:41:08.718Z,15.02
2023-04-20T23:43:35.466Z,14.93
2023-04-20T23:46:02.149Z,15.01
2023-04-20T23:48:28.908Z,14.86
2023-04-20T23:50:55.645Z,14.87
2023-04-20T23:53:22.540Z,14.93
2023-04-20T23:55:50.695Z,14.81
2023-04-20T23:58:17.336Z,15.01
